createdAt,value
2022-11-07T00:02:07.284Z,18.50
2022-11-07T00:04:37.005Z,22.83
2022-11-07T00:07:08.416Z,17.73
2022-11-07T00:09:42.884Z,18.60
2022-11-07T00:12:17.061Z,20.27
2022-11-07T00:14:46.309Z,21.17
2022-11-07T00:17:15.464Z,18.13
2022-11-07T00:19:44.781Z,18.80
2022-11-07T00:22:15.928Z,20.65
2022-11-07T00:24:45.171Z,18.77
2022-11-07T00:27:14.397Z,19.33
2022-11-07T00:29:44.036Z,19.58
2022-11-07T00:32:13.198Z,21.30
2022-11-07T00:34:42.474Z,19.58
2022-11-07T00:37:11.651Z,19.55
2022-11-07T00:39:43.196Z,19.88
2022-11-07T00:42:12.396Z,18.55
2022-11-07T00:44:41.627Z,19.83
2022-11-07T00:47:10.834Z,21.88
2022-11-07T00:49:39.893Z,19.67
2022-11-07T00:52:09.043Z,19.50
2022-11-07T00:54:43.211Z,24.05
2022-11-07T00:57:14.349Z,19.48
2022-11-07T00:59:48.510Z,21.58
2022-11-07T01:02:17.916Z,21.10
2022-11-07T01:05:05.422Z,21.70
2022-11-07T01:07:35.309Z,20.17
2022-11-07T01:10:05.379Z,22.33
2022-11-07T01:12:37.822Z,21.35
2022-11-07T01:15:07.940Z,21.98
2022-11-07T01:17:37.117Z,22.88
2022-11-07T01:20:13.201Z,20.25
2022-11-07T01:22:42.752Z,21.23
2022-11-07T01:25:11.932Z,22.58
2022-11-07T01:27:43.332Z,26.05
2022-11-07T01:30:13.742Z,22.45
2022-11-07T01:32:42.833Z,21.63
2022-11-07T01:35:12.089Z,23.35
2022-11-07T01:37:41.201Z,22.55
2022-11-07T01:40:15.579Z,23.00
2022-11-07T01:42:47.432Z,22.85
2022-11-07T01:45:30.543Z,22.70
2022-11-07T01:48:02.506Z,23.38
2022-11-07T01:53:01.853Z,21.42
2022-11-07T01:55:34.398Z,23.95
2022-11-07T01:58:10.114Z,23.20
2022-11-07T02:00:39.843Z,21.20
2022-11-07T02:03:12.998Z,23.90
2022-11-07T02:05:54.802Z,22.75
2022-11-07T02:08:35.051Z,23.15
2022-11-07T02:11:05.703Z,22.52
2022-11-07T02:13:36.909Z,22.92
2022-11-07T02:16:07.599Z,23.27
2022-11-07T02:18:38.972Z,28.67
2022-11-07T02:21:26.232Z,23.80
2022-11-07T02:24:08.314Z,24.92
2022-11-07T02:29:14.758Z,22.48
2022-11-07T02:31:43.963Z,21.88
2022-11-07T02:34:18.244Z,21.58
2022-11-07T02:36:47.495Z,23.30
2022-11-07T02:39:16.732Z,20.02
2022-11-07T02:41:54.670Z,21.63
2022-11-07T02:44:24.555Z,21.15
2022-11-07T02:46:54.053Z,21.67
2022-11-07T02:49:23.508Z,20.48
2022-11-07T02:51:53.457Z,21.90
2022-11-07T02:54:22.688Z,20.25
2022-11-07T02:56:53.973Z,18.40
2022-11-07T02:59:26.963Z,19.77
2022-11-07T03:01:56.688Z,23.05
2022-11-07T03:04:25.954Z,18.85
2022-11-07T03:06:55.371Z,20.25
2022-11-07T03:09:24.383Z,21.90
2022-11-07T03:11:55.633Z,26.48
2022-11-07T03:14:25.591Z,23.23
2022-11-07T03:16:55.014Z,20.73
2022-11-07T03:19:30.447Z,19.88
2022-11-07T03:22:00.909Z,19.70
2022-11-07T03:24:31.870Z,20.98
2022-11-07T03:27:09.168Z,22.10
2022-11-07T03:29:38.280Z,18.40
2022-11-07T03:32:07.758Z,19.23
2022-11-07T03:34:37.283Z,20.25
2022-11-07T03:37:07.134Z,20.08
2022-11-07T03:39:36.461Z,19.63
2022-11-07T03:42:06.044Z,18.95
2022-11-07T03:44:46.061Z,18.52
2022-11-07T03:47:15.468Z,18.92
2022-11-07T03:49:44.685Z,19.80
2022-11-07T03:52:13.750Z,18.38
2022-11-07T03:54:42.998Z,16.60
2022-11-07T03:57:12.352Z,19.15
2022-11-07T03:59:43.373Z,17.27
2022-11-07T04:02:17.765Z,17.98
2022-11-07T04:04:47.215Z,16.20
2022-11-07T04:07:18.394Z,18.45
2022-11-07T04:09:47.667Z,14.00
2022-11-07T04:12:29.620Z,20.00
2022-11-07T04:15:18.670Z,16.60
2022-11-07T04:17:47.717Z,20.10
2022-11-07T04:20:17.042Z,17.98
2022-11-07T04:22:46.348Z,18.17
2022-11-07T04:25:15.550Z,19.58
2022-11-07T04:27:42.780Z,15.93
2022-11-07T04:30:24.052Z,18.65
2022-11-07T04:32:54.998Z,16.02
2022-11-07T04:35:26.204Z,17.45
2022-11-07T04:38:03.000Z,12.82
2022-11-07T04:40:32.763Z,11.95
2022-11-07T04:43:03.169Z,14.82
2022-11-07T04:45:35.688Z,16.10
2022-11-07T04:48:05.232Z,15.38
2022-11-07T04:50:34.381Z,17.15
2022-11-07T04:53:08.612Z,14.60
2022-11-07T04:55:37.965Z,15.43
2022-11-07T04:58:07.031Z,14.73
2022-11-07T05:00:38.501Z,16.38
2022-11-07T05:03:07.800Z,15.73
2022-11-07T05:05:37.345Z,15.90
2022-11-07T05:08:18.240Z,14.98
2022-11-07T05:10:52.500Z,13.77
2022-11-07T05:13:26.946Z,13.35
2022-11-07T05:15:58.073Z,13.82
2022-11-07T05:18:27.357Z,13.57
2022-11-07T05:20:56.549Z,13.32
2022-11-07T05:23:27.486Z,13.20
2022-11-07T05:26:01.638Z,13.13
2022-11-07T05:28:38.776Z,11.77
2022-11-07T05:31:16.268Z,14.57
2022-11-07T05:33:46.031Z,12.43
2022-11-07T05:36:22.659Z,15.18
2022-11-07T05:38:53.111Z,12.13
2022-11-07T05:41:23.752Z,12.07
2022-11-07T05:43:52.904Z,13.60
2022-11-07T05:46:24.316Z,14.68
2022-11-07T05:48:58.083Z,11.88
2022-11-07T05:51:30.148Z,11.65
2022-11-07T05:53:59.184Z,14.05
2022-11-07T05:56:28.460Z,12.07
2022-11-07T05:59:02.617Z,12.85
2022-11-07T06:01:40.148Z,11.40
2022-11-07T06:04:09.986Z,11.57
2022-11-07T06:06:39.216Z,11.82
2022-11-07T06:09:08.309Z,11.43
2022-11-07T06:11:42.720Z,15.75
2022-11-07T06:14:16.842Z,13.15
2022-11-07T06:16:48.105Z,13.00
2022-11-07T06:19:17.414Z,15.40
2022-11-07T06:21:46.546Z,13.40
2022-11-07T06:24:22.229Z,12.00
2022-11-07T06:26:51.434Z,12.20
2022-11-07T06:29:27.232Z,14.60
2022-11-07T06:31:58.653Z,12.65
2022-11-07T06:34:33.064Z,11.02
2022-11-07T06:37:03.560Z,13.57
2022-11-07T06:39:32.748Z,14.00
2022-11-07T06:42:01.896Z,12.50
2022-11-07T06:44:31.105Z,13.63
2022-11-07T06:47:08.178Z,11.95
2022-11-07T06:49:37.292Z,13.32
2022-11-07T06:52:06.914Z,12.60
2022-11-07T06:54:36.101Z,12.15
2022-11-07T06:57:05.292Z,12.13
2022-11-07T06:59:34.354Z,13.13
2022-11-07T07:02:03.648Z,11.48
2022-11-07T07:04:34.853Z,12.52
2022-11-07T07:07:04.056Z,13.65
2022-11-07T07:09:33.344Z,11.65
2022-11-07T07:12:02.682Z,12.98
2022-11-07T07:14:31.853Z,11.10
2022-11-07T07:17:01.107Z,12.88
2022-11-07T07:19:30.309Z,12.90
2022-11-07T07:22:01.577Z,14.23
2022-11-07T07:24:30.935Z,11.07
2022-11-07T07:26:59.969Z,11.18
2022-11-07T07:29:29.292Z,10.52
2022-11-07T07:31:58.446Z,12.60
2022-11-07T07:34:27.553Z,11.95
2022-11-07T07:36:56.776Z,10.98
2022-11-07T07:39:28.249Z,10.98
2022-11-07T07:41:57.562Z,11.18
2022-11-07T07:44:26.778Z,10.45
2022-11-07T07:46:56.375Z,10.88
2022-11-07T07:49:25.514Z,11.95
2022-11-07T07:51:54.781Z,10.85
2022-11-07T07:54:23.917Z,12.25
2022-11-07T07:56:55.366Z,11.00
2022-11-07T07:59:24.580Z,12.00
2022-11-07T08:01:56.929Z,12.20
2022-11-07T08:04:26.865Z,10.93
2022-11-07T08:06:56.009Z,12.15
2022-11-07T08:09:35.979Z,10.77
2022-11-07T08:12:13.061Z,10.45
2022-11-07T08:14:42.687Z,10.48
2022-11-07T08:17:11.899Z,12.07
2022-11-07T08:19:41.054Z,12.60
2022-11-07T08:22:16.078Z,11.02
2022-11-07T08:24:45.364Z,12.23
2022-11-07T08:27:16.543Z,10.05
2022-11-07T08:29:45.742Z,12.45
2022-11-07T08:32:15.034Z,15.13
2022-11-07T08:34:44.336Z,12.43
2022-11-07T08:37:13.473Z,13.10
2022-11-07T08:39:42.760Z,10.82
2022-11-07T08:42:12.243Z,11.75
2022-11-07T08:44:43.597Z,15.38
2022-11-07T08:47:18.556Z,14.43
2022-11-07T08:49:48.021Z,12.82
2022-11-07T08:52:17.570Z,12.38
2022-11-07T08:54:47.152Z,11.48
2022-11-07T08:57:16.340Z,13.23
2022-11-07T08:59:47.680Z,14.93
2022-11-07T09:05:09.572Z,13.20
2022-11-07T09:07:41.184Z,12.73
2022-11-07T09:10:11.480Z,17.60
2022-11-07T09:12:46.855Z,13.38
2022-11-07T09:15:19.711Z,11.27
2022-11-07T09:17:50.606Z,12.73
2022-11-07T09:20:20.368Z,10.52
2022-11-07T09:22:49.492Z,9.65
2022-11-07T09:25:18.854Z,8.88
2022-11-07T09:27:48.141Z,12.13
2022-11-07T09:30:20.195Z,9.05
2022-11-07T09:32:58.268Z,8.63
2022-11-07T09:35:27.691Z,10.27
2022-11-07T09:37:56.969Z,10.25
2022-11-07T09:40:40.068Z,11.85
2022-11-07T09:43:32.402Z,10.70
2022-11-07T09:46:11.882Z,8.48
2022-11-07T09:48:46.086Z,9.13
2022-11-07T09:51:27.685Z,9.00
2022-11-07T09:54:02.258Z,11.23
2022-11-07T09:56:33.912Z,11.32
2022-11-07T09:59:12.930Z,10.48
2022-11-07T10:01:45.328Z,9.80
2022-11-07T10:04:24.617Z,9.30
2022-11-07T10:06:58.140Z,8.63
2022-11-07T10:09:38.825Z,10.07
2022-11-07T10:12:19.881Z,11.15
2022-11-07T10:15:00.671Z,10.60
2022-11-07T10:17:48.810Z,9.38
2022-11-07T10:20:38.001Z,8.13
2022-11-07T10:23:28.982Z,8.70
2022-11-07T10:26:06.394Z,9.52
2022-11-07T10:28:45.738Z,10.38
2022-11-07T10:31:16.963Z,10.48
2022-11-07T10:33:53.597Z,12.25
2022-11-07T10:36:26.684Z,11.32
2022-11-07T10:38:56.612Z,10.98
2022-11-07T10:41:28.122Z,13.38
2022-11-07T10:44:01.433Z,11.00
2022-11-07T10:46:40.087Z,12.05
2022-11-07T10:49:21.704Z,12.13
2022-11-07T10:51:51.677Z,13.18
2022-11-07T10:54:23.402Z,12.48
2022-11-07T10:59:36.480Z,13.23
2022-11-07T11:02:21.524Z,13.68
2022-11-07T11:04:55.602Z,11.60
2022-11-07T11:07:34.380Z,13.45
2022-11-07T11:10:04.579Z,13.38
2022-11-07T11:15:15.148Z,14.43
2022-11-07T11:17:45.865Z,14.60
2022-11-07T11:20:35.305Z,20.17
2022-11-07T11:23:07.839Z,16.20
2022-11-07T11:25:47.293Z,20.85
2022-11-07T11:28:22.721Z,16.40
2022-11-07T11:30:59.024Z,16.27
2022-11-07T11:33:34.342Z,17.45
2022-11-07T11:36:13.276Z,15.13
2022-11-07T11:38:42.857Z,15.70
2022-11-07T11:41:26.811Z,17.52
2022-11-07T11:44:00.745Z,16.92
2022-11-07T11:46:42.391Z,18.58
2022-11-07T11:49:17.233Z,18.02
2022-11-07T11:51:58.764Z,17.00
2022-11-07T11:54:33.063Z,15.70
2022-11-07T11:57:06.804Z,17.20
2022-11-07T11:59:59.811Z,18.38
2022-11-07T12:02:50.853Z,18.55
2022-11-07T12:05:36.829Z,19.17
2022-11-07T12:08:22.716Z,19.77
2022-11-07T12:11:01.017Z,20.40
2022-11-07T12:13:38.777Z,21.67
2022-11-07T12:16:15.932Z,21.27
2022-11-07T12:18:54.691Z,20.85
2022-11-07T12:21:32.116Z,19.73
2022-11-07T12:24:17.830Z,19.15
2022-11-07T12:26:57.901Z,20.25
2022-11-07T12:29:42.789Z,24.52
2022-11-07T12:32:18.514Z,23.55
2022-11-07T12:35:01.851Z,29.63
2022-11-07T12:38:00.979Z,23.45
2022-11-07T12:40:43.243Z,24.75
2022-11-07T12:43:24.796Z,22.48
2022-11-07T12:46:07.079Z,28.67
2022-11-07T12:55:57.679Z,18.77
2022-11-07T12:58:31.224Z,20.77
2022-11-07T13:01:16.245Z,18.75
2022-11-07T13:03:54.796Z,20.65
2022-11-07T13:06:33.164Z,20.33
2022-11-07T13:09:12.507Z,19.38
2022-11-07T13:11:50.536Z,22.20
2022-11-07T13:14:30.085Z,20.60
2022-11-07T13:17:17.385Z,18.55
2022-11-07T13:19:49.759Z,25.45
2022-11-07T13:22:25.490Z,21.42
2022-11-07T13:25:01.608Z,22.20
2022-11-07T13:27:38.855Z,23.17
2022-11-07T13:30:22.550Z,21.92
2022-11-07T13:32:56.858Z,22.30
2022-11-07T13:35:31.977Z,25.30
2022-11-07T13:38:08.526Z,23.70
2022-11-07T13:40:40.752Z,25.98
2022-11-07T13:45:52.358Z,21.10
2022-11-07T13:48:25.570Z,22.90
2022-11-07T13:51:03.120Z,20.92
2022-11-07T13:53:37.439Z,18.13
2022-11-07T13:56:17.239Z,20.15
2022-11-07T13:58:50.636Z,20.52
2022-11-07T14:01:19.996Z,16.20
2022-11-07T14:03:49.638Z,19.60
2022-11-07T14:06:24.920Z,19.27
2022-11-07T14:08:54.178Z,19.17
2022-11-07T14:11:24.766Z,20.80
2022-11-07T14:13:56.693Z,20.88
2022-11-07T14:19:00.084Z,19.80
2022-11-07T14:21:32.628Z,21.00
2022-11-07T14:24:07.139Z,21.08
2022-11-07T14:26:40.071Z,23.85
2022-11-07T14:29:24.079Z,20.83
2022-11-07T14:31:53.566Z,20.77
2022-11-07T14:34:24.532Z,20.95
2022-11-07T14:37:00.692Z,19.88
2022-11-07T14:39:32.303Z,19.63
2022-11-07T14:42:04.759Z,23.15
2022-11-07T14:47:23.890Z,20.95
2022-11-07T14:49:54.842Z,19.42
2022-11-07T14:52:25.827Z,19.05
2022-11-07T14:55:01.688Z,20.80
2022-11-07T14:57:39.390Z,19.67
2022-11-07T15:00:17.135Z,23.75
2022-11-07T15:02:54.314Z,21.67
2022-11-07T15:05:25.359Z,20.90
2022-11-07T15:08:00.731Z,24.67
2022-11-07T15:10:33.471Z,21.17
2022-11-07T15:13:05.564Z,21.52
2022-11-07T15:15:41.873Z,22.75
2022-11-07T15:18:29.037Z,15.80
2022-11-07T15:21:00.857Z,19.13
2022-11-07T15:23:37.205Z,20.90
2022-11-07T15:26:14.823Z,21.48
2022-11-07T15:28:48.613Z,22.02
2022-11-07T15:31:24.646Z,21.88
2022-11-07T15:34:01.089Z,24.30
2022-11-07T15:36:30.737Z,25.88
2022-11-07T15:39:00.361Z,23.08
2022-11-07T15:41:34.937Z,22.23
2022-11-07T15:44:04.351Z,21.17
2022-11-07T15:46:37.801Z,24.67
2022-11-07T15:49:07.838Z,26.95
2022-11-07T15:51:36.952Z,25.05
2022-11-07T15:54:11.446Z,22.35
2022-11-07T15:56:41.475Z,24.25
2022-11-07T15:59:19.292Z,23.02
2022-11-07T16:01:51.889Z,26.45
2022-11-07T16:04:21.252Z,26.27
2022-11-07T16:06:50.391Z,27.50
2022-11-07T16:09:22.391Z,27.05
2022-11-07T16:17:20.596Z,26.88
2022-11-07T16:19:50.002Z,27.35
2022-11-07T16:22:19.398Z,29.90
2022-11-07T16:24:53.904Z,28.48
2022-11-07T16:27:23.035Z,29.77
2022-11-07T16:29:52.366Z,26.27
2022-11-07T16:32:28.669Z,29.05
2022-11-07T16:34:58.093Z,30.25
2022-11-07T16:37:27.191Z,29.10
2022-11-07T16:39:56.529Z,26.80
2022-11-07T16:42:26.060Z,33.15
2022-11-07T16:44:55.528Z,29.33
2022-11-07T16:47:26.849Z,28.23
2022-11-07T16:49:56.252Z,29.13
2022-11-07T16:52:28.736Z,27.83
2022-11-07T16:54:58.796Z,27.90
2022-11-07T16:57:28.422Z,32.15
2022-11-07T16:59:57.623Z,29.98
2022-11-07T17:02:28.993Z,32.00
2022-11-07T17:05:00.206Z,32.03
2022-11-07T17:07:29.450Z,32.17
2022-11-07T17:09:58.770Z,30.30
2022-11-07T17:12:33.147Z,29.27
2022-11-07T17:15:02.768Z,30.55
2022-11-07T17:17:34.850Z,28.98
2022-11-07T17:20:04.453Z,38.92
2022-11-07T17:22:34.592Z,31.67
2022-11-07T17:25:04.625Z,29.75
2022-11-07T17:27:33.874Z,28.08
2022-11-07T17:30:08.194Z,28.48
2022-11-07T17:32:39.836Z,30.17
2022-11-07T17:35:31.092Z,34.20
2022-11-07T17:38:00.364Z,31.48
2022-11-07T17:40:32.493Z,28.83
2022-11-07T17:43:02.680Z,28.45
2022-11-07T17:45:36.991Z,26.70
2022-11-07T17:48:08.743Z,26.80
2022-11-07T17:53:06.918Z,24.35
2022-11-07T17:55:46.480Z,26.90
2022-11-07T17:58:16.304Z,27.42
2022-11-07T18:00:47.859Z,24.95
2022-11-07T18:03:19.032Z,25.25
2022-11-07T18:05:50.261Z,27.17
2022-11-07T18:08:38.457Z,24.90
2022-11-07T18:11:09.296Z,24.85
2022-11-07T18:13:38.477Z,26.25
2022-11-07T18:16:12.137Z,26.85
2022-11-07T18:18:43.351Z,26.10
2022-11-07T18:21:13.224Z,25.00
2022-11-07T18:23:43.227Z,27.27
2022-11-07T18:26:17.954Z,31.75
2022-11-07T18:28:47.326Z,32.05
2022-11-07T18:31:24.724Z,30.80
2022-11-07T18:34:00.935Z,31.80
2022-11-07T18:36:31.279Z,35.78
2022-11-07T18:39:04.063Z,37.50
2022-11-07T18:41:39.262Z,32.17
2022-11-07T18:44:09.060Z,33.40
2022-11-07T18:46:43.749Z,31.42
2022-11-07T18:49:18.539Z,30.33
2022-11-07T18:51:53.242Z,29.65
2022-11-07T18:54:25.321Z,28.08
2022-11-07T18:56:54.769Z,28.98
2022-11-07T18:59:24.192Z,29.13
2022-11-07T19:01:58.561Z,28.38
2022-11-07T19:04:29.960Z,29.02
2022-11-07T19:07:06.839Z,24.95
2022-11-07T19:09:38.922Z,28.25
2022-11-07T19:12:17.026Z,26.85
2022-11-07T19:14:49.197Z,30.63
2022-11-07T19:17:18.594Z,26.00
2022-11-07T19:19:50.016Z,26.60
2022-11-07T19:22:20.599Z,27.52
2022-11-07T19:24:51.371Z,29.65
2022-11-07T19:27:21.961Z,36.17
2022-11-07T19:29:51.654Z,29.98
2022-11-07T19:32:29.738Z,33.10
2022-11-07T19:35:01.054Z,33.80
2022-11-07T19:37:35.014Z,34.45
2022-11-07T19:40:04.822Z,32.00
2022-11-07T19:42:33.960Z,32.40
2022-11-07T19:45:03.445Z,31.65
2022-11-07T19:47:33.459Z,31.75
2022-11-07T19:50:10.632Z,30.40
2022-11-07T19:52:40.507Z,30.00
2022-11-07T19:55:10.880Z,28.85
2022-11-07T19:57:41.300Z,29.88
2022-11-07T20:00:13.241Z,30.98
2022-11-07T20:02:44.971Z,28.98
2022-11-07T20:07:56.273Z,26.63
2022-11-07T20:10:28.840Z,30.98
2022-11-07T20:12:58.397Z,27.58
2022-11-07T20:15:27.716Z,31.60
2022-11-07T20:18:03.696Z,31.10
2022-11-07T20:20:35.035Z,29.02
2022-11-07T20:23:04.471Z,31.02
2022-11-07T20:25:35.964Z,31.58
2022-11-07T20:28:16.687Z,27.13
2022-11-07T20:30:46.469Z,31.90
2022-11-07T20:33:16.378Z,30.58
2022-11-07T20:35:53.290Z,33.08
2022-11-07T20:38:22.888Z,33.60
2022-11-07T20:40:52.168Z,32.42
2022-11-07T20:43:28.033Z,31.23
2022-11-07T20:45:57.924Z,31.65
2022-11-07T20:48:28.710Z,33.25
2022-11-07T20:51:05.316Z,33.63
2022-11-07T20:53:34.488Z,33.78
2022-11-07T20:56:07.974Z,34.78
2022-11-07T20:58:39.509Z,32.08
2022-11-07T21:01:10.359Z,32.50
2022-11-07T21:03:40.484Z,35.42
2022-11-07T21:08:51.967Z,34.80
2022-11-07T21:14:07.866Z,34.90
2022-11-07T21:16:43.854Z,31.67
2022-11-07T21:19:17.006Z,32.60
2022-11-07T21:21:49.102Z,37.35
2022-11-07T21:24:18.318Z,38.67
2022-11-07T21:26:47.597Z,30.83
2022-11-07T21:32:00.739Z,36.05
2022-11-07T21:34:30.074Z,33.13
2022-11-07T21:37:06.372Z,36.28
2022-11-07T21:39:35.769Z,35.08
2022-11-07T21:42:05.054Z,33.80
2022-11-07T21:44:34.476Z,28.55
2022-11-07T21:47:03.594Z,33.15
2022-11-07T21:49:33.088Z,31.70
2022-11-07T21:52:06.703Z,36.42
2022-11-07T21:54:38.599Z,32.63
2022-11-07T21:57:14.194Z,35.30
2022-11-07T21:59:45.673Z,35.17
2022-11-07T22:04:55.380Z,38.85
2022-11-07T22:07:26.569Z,38.17
2022-11-07T22:10:06.181Z,36.97
2022-11-07T22:12:40.566Z,37.38
2022-11-07T22:15:16.266Z,39.42
2022-11-07T22:17:45.494Z,38.67
2022-11-07T22:20:20.953Z,37.33
2022-11-07T22:22:52.209Z,39.65
2022-11-07T22:25:26.525Z,38.42
2022-11-07T22:27:55.924Z,37.05
2022-11-07T22:30:25.300Z,38.63
2022-11-07T22:32:55.102Z,36.58
2022-11-07T22:35:24.356Z,40.53
2022-11-07T22:37:56.150Z,40.08
2022-11-07T22:40:25.619Z,38.97
2022-11-07T22:42:55.741Z,32.20
2022-11-07T22:45:30.363Z,41.25
2022-11-07T22:47:59.540Z,38.72
2022-11-07T22:50:28.800Z,38.65
2022-11-07T22:55:37.789Z,34.95
2022-11-07T22:58:07.480Z,39.00
2022-11-07T23:00:36.701Z,33.28
2022-11-07T23:03:06.177Z,34.95
2022-11-07T23:05:36.939Z,37.72
2022-11-07T23:08:13.182Z,35.58
2022-11-07T23:10:42.574Z,37.05
2022-11-07T23:13:11.844Z,39.22
2022-11-07T23:15:41.148Z,37.13
2022-11-07T23:18:10.368Z,36.03
2022-11-07T23:20:57.514Z,38.08
2022-11-07T23:23:31.186Z,38.72
2022-11-07T23:26:03.215Z,40.03
2022-11-07T23:31:17.807Z,37.47
2022-11-07T23:33:47.160Z,33.72
2022-11-07T23:36:26.975Z,39.75
2022-11-07T23:38:58.176Z,41.58
2022-11-07T23:41:27.543Z,36.13
2022-11-07T23:43:56.542Z,34.83
2022-11-07T23:46:38.787Z,40.22
2022-11-07T23:49:23.304Z,43.13
2022-11-07T23:51:57.559Z,35.58
2022-11-07T23:54:41.564Z,37.45
2022-11-07T23:57:11.089Z,37.55
2022-11-07T23:59:53.263Z,37.28
